Alyeska Resort
Max's Hourly Weather Roundup
ALYESKA_MAX 11/23/2014
Click Here for Graph

        DATE  TIME   Air  Wind  Wind  Wind  BATT   Rel
                    Temp   Spd   Dir  Gust  Volt  Hum%
                      F   MPH   AVG   MPH   AVG   AVG

  11/23/2014 23:00    28     8   108    26 12.67    97
  11/23/2014 22:00    28     4   106    12 12.67    96
  11/23/2014 21:00    28     8    91    18 12.68    94
  11/23/2014 20:00    28     7    88    18 12.69    96
  11/23/2014 19:00    29     7    84    20 12.71    94
  11/23/2014 18:00    28     6    88    27 12.75    97
  11/23/2014 17:00    29     7    99    21 12.81    93
  11/23/2014 16:00    28     4   113    13 12.92    96
  11/23/2014 15:00    29     7   128    21 13.03    96
  11/23/2014 14:00    29     7   110    21 13.04    95
  11/23/2014 13:00    29     8   112    20 13.02    94
  11/23/2014 12:00    29     9   124    19 12.89    95
  11/23/2014 11:00    28     6   110    15 12.74    96
  11/23/2014 10:00    28     5   104    15 12.67    95
  11/23/2014 09:00    28     8    92    18 12.67    96
  11/23/2014 08:00    28    11   113    20 12.66    99
  11/23/2014 07:00    29    12   111    21 12.66    98
  11/23/2014 06:00    28    11   123    18 12.66    99
  11/23/2014 05:00    28    13   114    24 12.66    99
  11/23/2014 04:00    28    13   113    22 12.66    99
  11/23/2014 03:00    28    11   114    23 12.67   100
  11/23/2014 02:00    28     6   132    20 12.67   100
  11/23/2014 01:00    28     6   127    13 12.67   100
  11/22/2014 24:00    29     6   120    15 12.67   100


Click Here for Graph